sensor_id;sensor_type;location;lat;lon;timestamp;temperature;humidity
25074;DHT22;13066;52.042;5.648;2022-12-11T00:00:53;3.20;99.90
25074;DHT22;13066;52.042;5.648;2022-12-11T00:03:21;3.20;99.90
25074;DHT22;13066;52.042;5.648;2022-12-11T00:05:51;3.20;99.90
25074;DHT22;13066;52.042;5.648;2022-12-11T00:08:19;3.20;99.90
25074;DHT22;13066;52.042;5.648;2022-12-11T00:10:47;3.20;99.90
25074;DHT22;13066;52.042;5.648;2022-12-11T00:13:16;3.20;99.90
25074;DHT22;13066;52.042;5.648;2022-12-11T00:15:44;3.20;99.90
25074;DHT22;13066;52.042;5.648;2022-12-11T00:18:12;3.30;99.90
25074;DHT22;13066;52.042;5.648;2022-12-11T00:20:40;3.30;99.90
25074;DHT22;13066;52.042;5.648;2022-12-11T00:23:11;3.30;99.90
25074;DHT22;13066;52.042;5.648;2022-12-11T00:25:41;3.30;99.90
25074;DHT22;13066;52.042;5.648;2022-12-11T00:28:10;3.30;99.90
25074;DHT22;13066;52.042;5.648;2022-12-11T00:30:39;3.30;99.90
25074;DHT22;13066;52.042;5.648;2022-12-11T00:33:08;3.20;99.90
25074;DHT22;13066;52.042;5.648;2022-12-11T00:35:37;3.30;99.90
25074;DHT22;13066;52.042;5.648;2022-12-11T00:38:06;3.20;99.90
25074;DHT22;13066;52.042;5.648;2022-12-11T00:40:36;3.30;99.90
25074;DHT22;13066;52.042;5.648;2022-12-11T00:43:04;3.30;99.90
25074;DHT22;13066;52.042;5.648;2022-12-11T00:45:35;3.30;99.90
25074;DHT22;13066;52.042;5.648;2022-12-11T00:48:03;3.30;99.90
25074;DHT22;13066;52.042;5.648;2022-12-11T00:50:32;3.30;99.90
25074;DHT22;13066;52.042;5.648;2022-12-11T00:53:00;3.30;99.90
25074;DHT22;13066;52.042;5.648;2022-12-11T00:55:28;3.30;99.90
25074;DHT22;13066;52.042;5.648;2022-12-11T00:57:57;3.30;99.90
25074;DHT22;13066;52.042;5.648;2022-12-11T01:00:25;3.30;99.90
25074;DHT22;13066;52.042;5.648;2022-12-11T01:02:53;3.30;99.90
25074;DHT22;13066;52.042;5.648;2022-12-11T01:05:21;3.30;99.90
25074;DHT22;13066;52.042;5.648;2022-12-11T01:07:49;3.30;99.90
25074;DHT22;13066;52.042;5.648;2022-12-11T01:10:17;3.30;99.90
25074;DHT22;13066;52.042;5.648;2022-12-11T01:12:53;3.30;99.90
25074;DHT22;13066;52.042;5.648;2022-12-11T01:15:25;3.30;99.90
25074;DHT22;13066;52.042;5.648;2022-12-11T01:17:54;3.30;99.90
25074;DHT22;13066;52.042;5.648;2022-12-11T01:20:24;3.30;99.90
25074;DHT22;13066;52.042;5.648;2022-12-11T01:22:52;3.30;99.90
25074;DHT22;13066;52.042;5.648;2022-12-11T01:25:21;3.30;99.90
25074;DHT22;13066;52.042;5.648;2022-12-11T01:27:49;3.30;99.90
25074;DHT22;13066;52.042;5.648;2022-12-11T01:30:18;3.30;99.90
25074;DHT22;13066;52.042;5.648;2022-12-11T01:32:48;3.30;99.90
25074;DHT22;13066;52.042;5.648;2022-12-11T01:35:17;3.30;99.90
25074;DHT22;13066;52.042;5.648;2022-12-11T01:37:45;3.30;99.90
25074;DHT22;13066;52.042;5.648;2022-12-11T01:40:14;3.30;99.90
25074;DHT22;13066;52.042;5.648;2022-12-11T01:42:43;3.30;99.90
25074;DHT22;13066;52.042;5.648;2022-12-11T01:45:30;3.40;99.90
25074;DHT22;13066;52.042;5.648;2022-12-11T01:48:04;3.40;99.90
25074;DHT22;13066;52.042;5.648;2022-12-11T01:50:37;3.40;99.90
25074;DHT22;13066;52.042;5.648;2022-12-11T01:53:08;3.40;99.90
25074;DHT22;13066;52.042;5.648;2022-12-11T01:55:38;3.40;99.90
25074;DHT22;13066;52.042;5.648;2022-12-11T01:58:07;3.40;99.90
25074;DHT22;13066;52.042;5.648;2022-12-11T02:00:37;3.30;99.90
25074;DHT22;13066;52.042;5.648;2022-12-11T02:03:07;3.30;99.90
25074;DHT22;13066;52.042;5.648;2022-12-11T02:05:35;3.30;99.90
25074;DHT22;13066;52.042;5.648;2022-12-11T02:08:06;3.40;99.90
25074;DHT22;13066;52.042;5.648;2022-12-11T02:10:50;3.40;99.90
25074;DHT22;13066;52.042;5.648;2022-12-11T02:13:28;3.40;99.90
25074;DHT22;13066;52.042;5.648;2022-12-11T02:16:03;3.40;99.90
25074;DHT22;13066;52.042;5.648;2022-12-11T02:18:38;3.40;99.90
25074;DHT22;13066;52.042;5.648;2022-12-11T02:21:11;3.40;99.90
25074;DHT22;13066;52.042;5.648;2022-12-11T02:27:10;3.40;99.90
25074;DHT22;13066;52.042;5.648;2022-12-11T02:29:48;3.40;99.90
25074;DHT22;13066;52.042;5.648;2022-12-11T02:32:21;3.40;99.90
25074;DHT22;13066;52.042;5.648;2022-12-11T02:34:55;3.40;99.90
25074;DHT22;13066;52.042;5.648;2022-12-11T02:37:26;3.40;99.90
25074;DHT22;13066;52.042;5.648;2022-12-11T02:39:56;3.40;99.90
25074;DHT22;13066;52.042;5.648;2022-12-11T02:42:28;3.40;99.90
25074;DHT22;13066;52.042;5.648;2022-12-11T02:45:00;3.40;99.90
25074;DHT22;13066;52.042;5.648;2022-12-11T02:47:29;3.40;99.90
25074;DHT22;13066;52.042;5.648;2022-12-11T02:50:01;3.40;99.90
25074;DHT22;13066;52.042;5.648;2022-12-11T02:52:30;3.40;99.90
25074;DHT22;13066;52.042;5.648;2022-12-11T02:55:00;3.40;99.90
25074;DHT22;13066;52.042;5.648;2022-12-11T02:57:34;3.50;99.90
25074;DHT22;13066;52.042;5.648;2022-12-11T03:00:08;3.50;99.90
25074;DHT22;13066;52.042;5.648;2022-12-11T03:02:36;3.50;99.90
25074;DHT22;13066;52.042;5.648;2022-12-11T03:05:06;3.50;99.90
25074;DHT22;13066;52.042;5.648;2022-12-11T03:07:38;3.50;99.90
25074;DHT22;13066;52.042;5.648;2022-12-11T03:10:07;3.60;99.90
25074;DHT22;13066;52.042;5.648;2022-12-11T03:12:38;3.60;99.90
25074;DHT22;13066;52.042;5.648;2022-12-11T03:15:12;3.60;99.90
25074;DHT22;13066;52.042;5.648;2022-12-11T03:17:50;3.60;99.90
25074;DHT22;13066;52.042;5.648;2022-12-11T03:20:29;3.60;99.90
25074;DHT22;13066;52.042;5.648;2022-12-11T03:23:05;3.60;99.90
25074;DHT22;13066;52.042;5.648;2022-12-11T03:25:42;3.60;99.90
25074;DHT22;13066;52.042;5.648;2022-12-11T03:28:13;3.60;99.90
25074;DHT22;13066;52.042;5.648;2022-12-11T03:30:45;3.60;99.90
25074;DHT22;13066;52.042;5.648;2022-12-11T03:33:22;3.70;99.90
25074;DHT22;13066;52.042;5.648;2022-12-11T03:35:53;3.70;99.90
25074;DHT22;13066;52.042;5.648;2022-12-11T03:38:24;3.70;99.90
25074;DHT22;13066;52.042;5.648;2022-12-11T03:40:57;3.60;99.90
25074;DHT22;13066;52.042;5.648;2022-12-11T03:43:28;3.70;99.90
25074;DHT22;13066;52.042;5.648;2022-12-11T03:46:00;3.70;99.90
25074;DHT22;13066;52.042;5.648;2022-12-11T03:48:32;3.70;99.90
25074;DHT22;13066;52.042;5.648;2022-12-11T03:51:02;3.70;99.90
25074;DHT22;13066;52.042;5.648;2022-12-11T03:53:32;3.70;99.90
25074;DHT22;13066;52.042;5.648;2022-12-11T03:56:03;3.70;99.90
25074;DHT22;13066;52.042;5.648;2022-12-11T03:58:32;3.70;99.90
25074;DHT22;13066;52.042;5.648;2022-12-11T04:01:01;3.70;99.90
25074;DHT22;13066;52.042;5.648;2022-12-11T04:03:29;3.70;99.90
25074;DHT22;13066;52.042;5.648;2022-12-11T04:05:57;3.80;99.90
25074;DHT22;13066;52.042;5.648;2022-12-11T04:08:25;3.80;99.90
25074;DHT22;13066;52.042;5.648;2022-12-11T04:10:53;3.80;99.90
25074;DHT22;13066;52.042;5.648;2022-12-11T04:13:36;3.80;99.90
25074;DHT22;13066;52.042;5.648;2022-12-11T04:16:06;3.80;99.90
25074;DHT22;13066;52.042;5.648;2022-12-11T04:18:33;3.80;99.90
25074;DHT22;13066;52.042;5.648;2022-12-11T04:21:19;3.80;99.90
25074;DHT22;13066;52.042;5.648;2022-12-11T04:24:06;3.80;99.90
25074;DHT22;13066;52.042;5.648;2022-12-11T04:26:43;3.80;99.90
25074;DHT22;13066;52.042;5.648;2022-12-11T04:29:12;3.80;99.90
25074;DHT22;13066;52.042;5.648;2022-12-11T04:31:41;3.90;99.90
25074;DHT22;13066;52.042;5.648;2022-12-11T04:34:09;3.80;99.90
25074;DHT22;13066;52.042;5.648;2022-12-11T04:36:37;3.80;99.90
25074;DHT22;13066;52.042;5.648;2022-12-11T04:39:05;3.80;99.90
25074;DHT22;13066;52.042;5.648;2022-12-11T04:41:34;3.80;99.90
25074;DHT22;13066;52.042;5.648;2022-12-11T04:44:03;3.80;99.90
25074;DHT22;13066;52.042;5.648;2022-12-11T04:46:31;3.80;99.90
25074;DHT22;13066;52.042;5.648;2022-12-11T04:49:01;3.80;99.90
25074;DHT22;13066;52.042;5.648;2022-12-11T04:51:29;3.80;99.90
25074;DHT22;13066;52.042;5.648;2022-12-11T04:53:57;3.80;99.90
25074;DHT22;13066;52.042;5.648;2022-12-11T04:56:26;3.80;99.90
25074;DHT22;13066;52.042;5.648;2022-12-11T04:58:54;3.80;99.90
25074;DHT22;13066;52.042;5.648;2022-12-11T05:01:22;3.80;99.90
25074;DHT22;13066;52.042;5.648;2022-12-11T05:03:51;3.80;99.90
25074;DHT22;13066;52.042;5.648;2022-12-11T05:06:20;3.80;99.90
25074;DHT22;13066;52.042;5.648;2022-12-11T05:08:48;3.80;99.90
25074;DHT22;13066;52.042;5.648;2022-12-11T05:11:16;3.80;99.90
25074;DHT22;13066;52.042;5.648;2022-12-11T05:13:44;3.80;99.90
25074;DHT22;13066;52.042;5.648;2022-12-11T05:16:14;3.80;99.90
25074;DHT22;13066;52.042;5.648;2022-12-11T05:18:43;3.70;99.90
25074;DHT22;13066;52.042;5.648;2022-12-11T05:21:12;3.80;99.90
25074;DHT22;13066;52.042;5.648;2022-12-11T05:23:42;3.80;99.90
25074;DHT22;13066;52.042;5.648;2022-12-11T05:26:12;3.80;99.90
25074;DHT22;13066;52.042;5.648;2022-12-11T05:28:40;3.80;99.90
25074;DHT22;13066;52.042;5.648;2022-12-11T05:31:12;3.80;99.90
25074;DHT22;13066;52.042;5.648;2022-12-11T05:33:41;3.90;99.90
25074;DHT22;13066;52.042;5.648;2022-12-11T05:36:14;3.90;99.90
25074;DHT22;13066;52.042;5.648;2022-12-11T05:38:44;3.90;99.90
25074;DHT22;13066;52.042;5.648;2022-12-11T05:41:15;3.90;99.90
25074;DHT22;13066;52.042;5.648;2022-12-11T05:43:43;3.90;99.90
25074;DHT22;13066;52.042;5.648;2022-12-11T05:46:14;3.90;99.90
25074;DHT22;13066;52.042;5.648;2022-12-11T05:48:43;3.90;99.90
25074;DHT22;13066;52.042;5.648;2022-12-11T05:51:12;3.90;99.90
25074;DHT22;13066;52.042;5.648;2022-12-11T05:53:41;3.90;99.90
25074;DHT22;13066;52.042;5.648;2022-12-11T05:56:13;3.90;99.90
25074;DHT22;13066;52.042;5.648;2022-12-11T05:58:43;3.90;99.90
25074;DHT22;13066;52.042;5.648;2022-12-11T06:01:13;3.90;99.90
25074;DHT22;13066;52.042;5.648;2022-12-11T06:03:42;3.90;99.90
25074;DHT22;13066;52.042;5.648;2022-12-11T06:06:10;3.90;99.90
25074;DHT22;13066;52.042;5.648;2022-12-11T06:08:38;3.90;99.90
25074;DHT22;13066;52.042;5.648;2022-12-11T06:11:07;3.80;99.90
25074;DHT22;13066;52.042;5.648;2022-12-11T06:13:36;3.80;99.90
25074;DHT22;13066;52.042;5.648;2022-12-11T06:16:07;3.80;99.90
25074;DHT22;13066;52.042;5.648;2022-12-11T06:18:36;3.80;99.90
25074;DHT22;13066;52.042;5.648;2022-12-11T06:21:15;3.80;99.90
25074;DHT22;13066;52.042;5.648;2022-12-11T06:23:44;3.80;99.90
25074;DHT22;13066;52.042;5.648;2022-12-11T06:26:13;3.70;99.90
25074;DHT22;13066;52.042;5.648;2022-12-11T06:28:43;3.70;99.90
25074;DHT22;13066;52.042;5.648;2022-12-11T06:31:11;3.70;99.90
25074;DHT22;13066;52.042;5.648;2022-12-11T06:33:41;3.70;99.90
25074;DHT22;13066;52.042;5.648;2022-12-11T06:36:11;3.70;99.90
25074;DHT22;13066;52.042;5.648;2022-12-11T06:38:40;3.70;99.90
25074;DHT22;13066;52.042;5.648;2022-12-11T06:41:09;3.70;99.90
25074;DHT22;13066;52.042;5.648;2022-12-11T06:43:38;3.70;99.90
25074;DHT22;13066;52.042;5.648;2022-12-11T06:46:09;3.70;99.90
25074;DHT22;13066;52.042;5.648;2022-12-11T06:48:38;3.70;99.90
25074;DHT22;13066;52.042;5.648;2022-12-11T06:51:09;3.70;99.90
25074;DHT22;13066;52.042;5.648;2022-12-11T06:53:38;3.70;99.90
25074;DHT22;13066;52.042;5.648;2022-12-11T06:56:08;3.70;99.90
25074;DHT22;13066;52.042;5.648;2022-12-11T06:58:38;3.70;99.90
25074;DHT22;13066;52.042;5.648;2022-12-11T07:01:14;3.70;99.90
25074;DHT22;13066;52.042;5.648;2022-12-11T07:03:43;3.70;99.90
25074;DHT22;13066;52.042;5.648;2022-12-11T07:06:11;3.70;99.90
25074;DHT22;13066;52.042;5.648;2022-12-11T07:08:39;3.70;99.90
25074;DHT22;13066;52.042;5.648;2022-12-11T07:11:10;3.70;99.90
25074;DHT22;13066;52.042;5.648;2022-12-11T07:13:38;3.70;99.90
25074;DHT22;13066;52.042;5.648;2022-12-11T07:16:09;3.70;99.90
25074;DHT22;13066;52.042;5.648;2022-12-11T07:18:40;3.70;99.90
25074;DHT22;13066;52.042;5.648;2022-12-11T07:21:10;3.70;99.90
25074;DHT22;13066;52.042;5.648;2022-12-11T07:23:39;3.70;99.90
25074;DHT22;13066;52.042;5.648;2022-12-11T07:26:09;3.60;99.90
25074;DHT22;13066;52.042;5.648;2022-12-11T07:28:37;3.60;99.90
25074;DHT22;13066;52.042;5.648;2022-12-11T07:31:06;3.60;99.90
25074;DHT22;13066;52.042;5.648;2022-12-11T07:33:35;3.60;99.90
25074;DHT22;13066;52.042;5.648;2022-12-11T07:36:07;3.60;99.90
25074;DHT22;13066;52.042;5.648;2022-12-11T07:38:36;3.60;99.90
25074;DHT22;13066;52.042;5.648;2022-12-11T07:41:05;3.60;99.90
25074;DHT22;13066;52.042;5.648;2022-12-11T07:43:34;3.60;99.90
25074;DHT22;13066;52.042;5.648;2022-12-11T07:46:04;3.60;99.90
25074;DHT22;13066;52.042;5.648;2022-12-11T07:48:34;3.60;99.90
25074;DHT22;13066;52.042;5.648;2022-12-11T07:51:11;3.60;99.90
25074;DHT22;13066;52.042;5.648;2022-12-11T07:53:41;3.60;99.90
25074;DHT22;13066;52.042;5.648;2022-12-11T07:56:09;3.50;99.90
25074;DHT22;13066;52.042;5.648;2022-12-11T07:58:37;3.60;99.90
25074;DHT22;13066;52.042;5.648;2022-12-11T08:01:09;3.60;99.90
25074;DHT22;13066;52.042;5.648;2022-12-11T08:03:39;3.60;99.90
25074;DHT22;13066;52.042;5.648;2022-12-11T08:06:09;3.60;99.90
25074;DHT22;13066;52.042;5.648;2022-12-11T08:08:39;3.60;99.90
25074;DHT22;13066;52.042;5.648;2022-12-11T08:11:09;3.60;99.90
25074;DHT22;13066;52.042;5.648;2022-12-11T08:13:38;3.60;99.90
25074;DHT22;13066;52.042;5.648;2022-12-11T08:16:09;3.50;99.90
25074;DHT22;13066;52.042;5.648;2022-12-11T08:18:39;3.50;99.90
25074;DHT22;13066;52.042;5.648;2022-12-11T08:21:08;3.50;99.90
25074;DHT22;13066;52.042;5.648;2022-12-11T08:23:39;3.50;99.90
25074;DHT22;13066;52.042;5.648;2022-12-11T08:26:08;3.50;99.90
25074;DHT22;13066;52.042;5.648;2022-12-11T08:28:37;3.40;99.90
25074;DHT22;13066;52.042;5.648;2022-12-11T08:31:06;3.40;99.90
25074;DHT22;13066;52.042;5.648;2022-12-11T08:33:35;3.40;99.90
25074;DHT22;13066;52.042;5.648;2022-12-11T08:36:03;3.40;99.90
25074;DHT22;13066;52.042;5.648;2022-12-11T08:38:32;3.40;99.90
25074;DHT22;13066;52.042;5.648;2022-12-11T08:41:08;3.40;99.90
25074;DHT22;13066;52.042;5.648;2022-12-11T08:43:37;3.40;99.90
25074;DHT22;13066;52.042;5.648;2022-12-11T08:46:06;3.40;99.90
25074;DHT22;13066;52.042;5.648;2022-12-11T08:48:34;3.40;99.90
25074;DHT22;13066;52.042;5.648;2022-12-11T08:51:03;3.40;99.90
25074;DHT22;13066;52.042;5.648;2022-12-11T08:53:32;3.40;99.90
25074;DHT22;13066;52.042;5.648;2022-12-11T08:56:00;3.40;99.90
25074;DHT22;13066;52.042;5.648;2022-12-11T08:58:30;3.40;99.90
25074;DHT22;13066;52.042;5.648;2022-12-11T09:00:58;3.40;99.90
25074;DHT22;13066;52.042;5.648;2022-12-11T09:03:26;3.40;99.90
25074;DHT22;13066;52.042;5.648;2022-12-11T09:05:55;3.40;99.90
25074;DHT22;13066;52.042;5.648;2022-12-11T09:08:23;3.50;99.90
25074;DHT22;13066;52.042;5.648;2022-12-11T09:10:51;3.50;99.90
25074;DHT22;13066;52.042;5.648;2022-12-11T09:13:19;3.50;99.90
25074;DHT22;13066;52.042;5.648;2022-12-11T09:15:48;3.50;99.90
25074;DHT22;13066;52.042;5.648;2022-12-11T09:18:16;3.50;99.90
25074;DHT22;13066;52.042;5.648;2022-12-11T09:20:45;3.60;99.90
25074;DHT22;13066;52.042;5.648;2022-12-11T09:23:13;3.60;99.90
25074;DHT22;13066;52.042;5.648;2022-12-11T09:25:41;3.60;99.90
25074;DHT22;13066;52.042;5.648;2022-12-11T09:28:09;3.70;99.90
25074;DHT22;13066;52.042;5.648;2022-12-11T09:30:37;3.70;99.90
25074;DHT22;13066;52.042;5.648;2022-12-11T09:33:06;3.80;99.90
25074;DHT22;13066;52.042;5.648;2022-12-11T09:35:34;3.80;99.90
25074;DHT22;13066;52.042;5.648;2022-12-11T09:38:03;3.80;99.90
25074;DHT22;13066;52.042;5.648;2022-12-11T09:40:31;3.90;99.90
25074;DHT22;13066;52.042;5.648;2022-12-11T09:43:08;3.90;99.90
25074;DHT22;13066;52.042;5.648;2022-12-11T09:45:41;3.90;99.90
25074;DHT22;13066;52.042;5.648;2022-12-11T09:48:11;3.90;99.90
25074;DHT22;13066;52.042;5.648;2022-12-11T09:50:43;4.00;99.90
25074;DHT22;13066;52.042;5.648;2022-12-11T09:53:15;4.00;99.90
25074;DHT22;13066;52.042;5.648;2022-12-11T09:55:51;4.00;99.90
25074;DHT22;13066;52.042;5.648;2022-12-11T09:58:24;4.00;99.90
25074;DHT22;13066;52.042;5.648;2022-12-11T10:01:00;4.00;99.90
25074;DHT22;13066;52.042;5.648;2022-12-11T10:03:51;4.00;99.90
25074;DHT22;13066;52.042;5.648;2022-12-11T10:06:26;4.10;99.90
25074;DHT22;13066;52.042;5.648;2022-12-11T10:09:02;4.10;99.90
25074;DHT22;13066;52.042;5.648;2022-12-11T10:11:49;4.00;99.90
25074;DHT22;13066;52.042;5.648;2022-12-11T10:14:28;4.10;99.90
25074;DHT22;13066;52.042;5.648;2022-12-11T10:17:03;4.10;99.90
25074;DHT22;13066;52.042;5.648;2022-12-11T10:19:33;4.10;99.90
25074;DHT22;13066;52.042;5.648;2022-12-11T10:22:02;4.10;99.90
25074;DHT22;13066;52.042;5.648;2022-12-11T10:24:35;4.20;99.90
25074;DHT22;13066;52.042;5.648;2022-12-11T10:27:26;4.20;99.90
25074;DHT22;13066;52.042;5.648;2022-12-11T10:30:06;4.20;99.90
25074;DHT22;13066;52.042;5.648;2022-12-11T10:32:39;4.20;99.90
25074;DHT22;13066;52.042;5.648;2022-12-11T10:35:18;4.20;99.90
25074;DHT22;13066;52.042;5.648;2022-12-11T10:37:46;4.20;99.90
25074;DHT22;13066;52.042;5.648;2022-12-11T10:40:15;4.20;99.90
25074;DHT22;13066;52.042;5.648;2022-12-11T10:42:51;4.20;99.90
25074;DHT22;13066;52.042;5.648;2022-12-11T10:45:20;4.30;99.90
25074;DHT22;13066;52.042;5.648;2022-12-11T10:47:48;4.20;99.90
25074;DHT22;13066;52.042;5.648;2022-12-11T10:50:25;4.20;99.90
25074;DHT22;13066;52.042;5.648;2022-12-11T10:52:54;4.20;99.90
25074;DHT22;13066;52.042;5.648;2022-12-11T10:55:24;4.20;99.90
25074;DHT22;13066;52.042;5.648;2022-12-11T10:57:57;4.20;99.90
25074;DHT22;13066;52.042;5.648;2022-12-11T11:00:33;4.20;99.90
25074;DHT22;13066;52.042;5.648;2022-12-11T11:03:04;4.30;99.90
25074;DHT22;13066;52.042;5.648;2022-12-11T11:05:35;4.30;99.90
25074;DHT22;13066;52.042;5.648;2022-12-11T11:08:13;4.30;99.90
25074;DHT22;13066;52.042;5.648;2022-12-11T11:10:53;4.30;99.90
25074;DHT22;13066;52.042;5.648;2022-12-11T11:13:23;4.30;99.90
25074;DHT22;13066;52.042;5.648;2022-12-11T11:15:58;4.40;99.90
25074;DHT22;13066;52.042;5.648;2022-12-11T11:18:28;4.60;99.90
25074;DHT22;13066;52.042;5.648;2022-12-11T11:20:59;4.70;99.90
25074;DHT22;13066;52.042;5.648;2022-12-11T11:23:28;4.90;99.90
25074;DHT22;13066;52.042;5.648;2022-12-11T11:25:58;5.00;99.90
25074;DHT22;13066;52.042;5.648;2022-12-11T11:28:32;5.10;99.90
25074;DHT22;13066;52.042;5.648;2022-12-11T11:31:02;5.30;99.90
25074;DHT22;13066;52.042;5.648;2022-12-11T11:33:33;5.30;99.90
25074;DHT22;13066;52.042;5.648;2022-12-11T11:36:05;5.40;99.90
25074;DHT22;13066;52.042;5.648;2022-12-11T11:38:36;5.50;99.90
25074;DHT22;13066;52.042;5.648;2022-12-11T11:41:12;5.60;99.90
25074;DHT22;13066;52.042;5.648;2022-12-11T11:43:45;5.60;99.90
25074;DHT22;13066;52.042;5.648;2022-12-11T11:46:15;5.70;99.90
25074;DHT22;13066;52.042;5.648;2022-12-11T11:48:50;5.80;99.90
25074;DHT22;13066;52.042;5.648;2022-12-11T11:51:26;5.80;99.90
25074;DHT22;13066;52.042;5.648;2022-12-11T11:53:59;6.00;99.90
25074;DHT22;13066;52.042;5.648;2022-12-11T11:56:31;6.00;99.90
25074;DHT22;13066;52.042;5.648;2022-12-11T11:59:11;6.10;99.90
25074;DHT22;13066;52.042;5.648;2022-12-11T12:01:41;6.10;99.90
25074;DHT22;13066;52.042;5.648;2022-12-11T12:04:10;6.00;99.90
25074;DHT22;13066;52.042;5.648;2022-12-11T12:07:08;5.80;99.90
25074;DHT22;13066;52.042;5.648;2022-12-11T12:09:46;5.70;99.90
25074;DHT22;13066;52.042;5.648;2022-12-11T12:12:27;5.60;99.90
25074;DHT22;13066;52.042;5.648;2022-12-11T12:15:17;5.40;99.90
25074;DHT22;13066;52.042;5.648;2022-12-11T12:17:51;5.30;99.90
25074;DHT22;13066;52.042;5.648;2022-12-11T12:20:28;5.20;99.90
25074;DHT22;13066;52.042;5.648;2022-12-11T12:23:12;5.10;99.90
25074;DHT22;13066;52.042;5.648;2022-12-11T12:25:48;5.10;99.90
25074;DHT22;13066;52.042;5.648;2022-12-11T12:28:27;5.00;99.90
25074;DHT22;13066;52.042;5.648;2022-12-11T12:31:09;5.00;99.90
25074;DHT22;13066;52.042;5.648;2022-12-11T12:33:50;4.90;99.90
25074;DHT22;13066;52.042;5.648;2022-12-11T12:36:24;4.90;99.90
25074;DHT22;13066;52.042;5.648;2022-12-11T12:39:00;4.90;99.90
25074;DHT22;13066;52.042;5.648;2022-12-11T12:41:39;4.80;99.90
25074;DHT22;13066;52.042;5.648;2022-12-11T12:44:13;4.70;99.90
25074;DHT22;13066;52.042;5.648;2022-12-11T12:46:50;4.70;99.90
25074;DHT22;13066;52.042;5.648;2022-12-11T12:49:35;4.60;99.90
25074;DHT22;13066;52.042;5.648;2022-12-11T12:52:09;4.60;99.90
25074;DHT22;13066;52.042;5.648;2022-12-11T12:54:40;4.60;99.90
25074;DHT22;13066;52.042;5.648;2022-12-11T12:57:30;4.60;99.90
25074;DHT22;13066;52.042;5.648;2022-12-11T12:59:59;4.60;99.90
25074;DHT22;13066;52.042;5.648;2022-12-11T13:02:27;4.60;99.90
25074;DHT22;13066;52.042;5.648;2022-12-11T13:04:58;4.50;99.90
25074;DHT22;13066;52.042;5.648;2022-12-11T13:07:29;4.50;99.90
25074;DHT22;13066;52.042;5.648;2022-12-11T13:10:03;4.50;99.90
25074;DHT22;13066;52.042;5.648;2022-12-11T13:12:39;4.50;99.90
25074;DHT22;13066;52.042;5.648;2022-12-11T13:15:26;4.50;99.90
25074;DHT22;13066;52.042;5.648;2022-12-11T13:17:56;4.60;99.90
25074;DHT22;13066;52.042;5.648;2022-12-11T13:20:26;4.60;99.90
25074;DHT22;13066;52.042;5.648;2022-12-11T13:23:13;4.50;99.90
25074;DHT22;13066;52.042;5.648;2022-12-11T13:25:49;4.50;99.90
25074;DHT22;13066;52.042;5.648;2022-12-11T13:28:27;4.50;99.90
25074;DHT22;13066;52.042;5.648;2022-12-11T13:30:59;4.50;99.90
25074;DHT22;13066;52.042;5.648;2022-12-11T13:33:28;4.50;99.90
25074;DHT22;13066;52.042;5.648;2022-12-11T13:36:17;4.40;99.90
25074;DHT22;13066;52.042;5.648;2022-12-11T13:38:53;4.50;99.90
25074;DHT22;13066;52.042;5.648;2022-12-11T13:41:23;4.50;99.90
25074;DHT22;13066;52.042;5.648;2022-12-11T13:43:54;4.50;99.90
25074;DHT22;13066;52.042;5.648;2022-12-11T13:46:28;4.50;99.90
25074;DHT22;13066;52.042;5.648;2022-12-11T13:49:00;4.50;99.90
25074;DHT22;13066;52.042;5.648;2022-12-11T13:51:31;4.50;99.90
25074;DHT22;13066;52.042;5.648;2022-12-11T13:54:13;4.50;99.90
25074;DHT22;13066;52.042;5.648;2022-12-11T13:56:55;4.50;99.90
25074;DHT22;13066;52.042;5.648;2022-12-11T13:59:26;4.50;99.90
25074;DHT22;13066;52.042;5.648;2022-12-11T14:01:57;4.50;99.90
25074;DHT22;13066;52.042;5.648;2022-12-11T14:04:27;4.50;99.90
25074;DHT22;13066;52.042;5.648;2022-12-11T14:06:56;4.50;99.90
25074;DHT22;13066;52.042;5.648;2022-12-11T14:09:26;4.50;99.90
25074;DHT22;13066;52.042;5.648;2022-12-11T14:11:56;4.50;99.90
25074;DHT22;13066;52.042;5.648;2022-12-11T14:14:32;4.50;99.90
25074;DHT22;13066;52.042;5.648;2022-12-11T14:17:02;4.50;99.90
25074;DHT22;13066;52.042;5.648;2022-12-11T14:19:30;4.50;99.90
25074;DHT22;13066;52.042;5.648;2022-12-11T14:21:59;4.50;99.90
25074;DHT22;13066;52.042;5.648;2022-12-11T14:24:29;4.50;99.90
25074;DHT22;13066;52.042;5.648;2022-12-11T14:26:59;4.50;99.90
25074;DHT22;13066;52.042;5.648;2022-12-11T14:29:28;4.50;99.90
25074;DHT22;13066;52.042;5.648;2022-12-11T14:32:01;4.40;99.90
25074;DHT22;13066;52.042;5.648;2022-12-11T14:34:34;4.50;99.90
25074;DHT22;13066;52.042;5.648;2022-12-11T14:37:05;4.50;99.90
25074;DHT22;13066;52.042;5.648;2022-12-11T14:39:36;4.50;99.90
25074;DHT22;13066;52.042;5.648;2022-12-11T14:42:09;4.50;99.90
25074;DHT22;13066;52.042;5.648;2022-12-11T14:44:45;4.50;99.90
25074;DHT22;13066;52.042;5.648;2022-12-11T14:47:17;4.50;99.90
25074;DHT22;13066;52.042;5.648;2022-12-11T14:49:50;4.50;99.90
25074;DHT22;13066;52.042;5.648;2022-12-11T14:52:22;4.50;99.90
25074;DHT22;13066;52.042;5.648;2022-12-11T14:54:53;4.50;99.90
25074;DHT22;13066;52.042;5.648;2022-12-11T14:57:26;4.40;99.90
25074;DHT22;13066;52.042;5.648;2022-12-11T14:59:55;4.40;99.90
25074;DHT22;13066;52.042;5.648;2022-12-11T15:02:27;4.40;99.90
25074;DHT22;13066;52.042;5.648;2022-12-11T15:05:00;4.50;99.90
25074;DHT22;13066;52.042;5.648;2022-12-11T15:07:29;4.40;99.90
25074;DHT22;13066;52.042;5.648;2022-12-11T15:09:57;4.40;99.90
25074;DHT22;13066;52.042;5.648;2022-12-11T15:12:27;4.40;99.90
25074;DHT22;13066;52.042;5.648;2022-12-11T15:14:57;4.40;99.90
25074;DHT22;13066;52.042;5.648;2022-12-11T15:17:27;4.40;99.90
25074;DHT22;13066;52.042;5.648;2022-12-11T15:20:00;4.40;99.90
25074;DHT22;13066;52.042;5.648;2022-12-11T15:22:31;4.40;99.90
25074;DHT22;13066;52.042;5.648;2022-12-11T15:24:59;4.40;99.90
25074;DHT22;13066;52.042;5.648;2022-12-11T15:27:33;4.40;99.90
25074;DHT22;13066;52.042;5.648;2022-12-11T15:30:14;4.50;99.90
25074;DHT22;13066;52.042;5.648;2022-12-11T15:32:46;4.40;99.90
25074;DHT22;13066;52.042;5.648;2022-12-11T15:35:22;4.40;99.90
25074;DHT22;13066;52.042;5.648;2022-12-11T15:37:51;4.40;99.90
25074;DHT22;13066;52.042;5.648;2022-12-11T15:40:20;4.50;99.90
25074;DHT22;13066;52.042;5.648;2022-12-11T15:42:56;4.40;99.90
25074;DHT22;13066;52.042;5.648;2022-12-11T15:45:26;4.40;99.90
25074;DHT22;13066;52.042;5.648;2022-12-11T15:47:55;4.40;99.90
25074;DHT22;13066;52.042;5.648;2022-12-11T15:50:26;4.40;99.90
25074;DHT22;13066;52.042;5.648;2022-12-11T15:52:55;4.40;99.90
25074;DHT22;13066;52.042;5.648;2022-12-11T15:55:26;4.30;99.90
25074;DHT22;13066;52.042;5.648;2022-12-11T15:57:58;4.30;99.90
25074;DHT22;13066;52.042;5.648;2022-12-11T16:00:27;4.30;99.90
25074;DHT22;13066;52.042;5.648;2022-12-11T16:02:56;4.30;99.90
25074;DHT22;13066;52.042;5.648;2022-12-11T16:05:25;4.30;99.90
25074;DHT22;13066;52.042;5.648;2022-12-11T16:07:53;4.30;99.90
25074;DHT22;13066;52.042;5.648;2022-12-11T16:10:25;4.30;99.90
25074;DHT22;13066;52.042;5.648;2022-12-11T16:12:53;4.30;99.90
25074;DHT22;13066;52.042;5.648;2022-12-11T16:15:27;4.30;99.90